createdAt,value
2019-01-02T00:06:01.369Z,3.80
2019-01-02T00:08:29.280Z,3.10
2019-01-02T00:11:16.256Z,3.10
2019-01-02T00:16:53.321Z,3.65
2019-01-02T00:19:22.212Z,3.45
2019-01-02T00:21:51.804Z,4.15
2019-01-02T00:24:20.192Z,3.45
2019-01-02T00:29:35.242Z,4.37
2019-01-02T00:32:03.170Z,3.90
2019-01-02T00:37:28.887Z,3.72
2019-01-02T00:42:51.401Z,4.25
2019-01-02T00:45:22.447Z,3.47
2019-01-02T00:47:49.063Z,3.77
2019-01-02T00:50:16.976Z,2.65
2019-01-02T00:53:03.930Z,3.50
2019-01-02T00:55:33.521Z,4.22
2019-01-02T00:58:01.509Z,4.20
2019-01-02T01:00:31.410Z,4.22
2019-01-02T01:02:59.335Z,3.90
2019-01-02T01:05:27.246Z,4.37
2019-01-02T01:07:55.151Z,3.67
2019-01-02T01:10:30.228Z,5.10
2019-01-02T01:12:58.144Z,4.28
2019-01-02T01:15:26.034Z,3.92
2019-01-02T01:17:53.971Z,4.10
2019-01-02T01:20:24.339Z,4.45
2019-01-02T01:22:52.293Z,4.00
2019-01-02T01:25:21.930Z,3.77
2019-01-02T01:27:52.200Z,3.75
2019-01-02T01:30:20.206Z,3.80
2019-01-02T01:32:48.133Z,4.55
2019-01-02T01:35:16.800Z,3.65
2019-01-02T01:37:48.112Z,3.87
2019-01-02T01:43:23.790Z,3.45
2019-01-02T01:45:52.086Z,3.85
2019-01-02T01:48:20.054Z,2.72
2019-01-02T01:50:48.376Z,3.80
2019-01-02T01:53:17.981Z,3.72
2019-01-02T01:55:45.868Z,3.70
2019-01-02T02:01:07.446Z,4.17
2019-01-02T02:15:10.213Z,3.08
2019-01-02T02:17:44.713Z,3.08
2019-01-02T02:23:00.146Z,3.52
2019-01-02T02:28:23.346Z,4.47
2019-01-02T02:30:51.207Z,4.03
2019-01-02T02:33:20.821Z,3.85
2019-01-02T02:35:50.843Z,5.42
2019-01-02T02:38:20.938Z,4.10
2019-01-02T02:40:50.859Z,5.42
2019-01-02T02:43:18.836Z,4.12
2019-01-02T02:45:46.682Z,4.42
2019-01-02T02:48:16.347Z,2.65
2019-01-02T02:50:45.990Z,3.90
2019-01-02T02:53:15.633Z,3.77
2019-01-02T02:55:45.512Z,5.53
2019-01-02T02:58:17.438Z,3.15
2019-01-02T03:01:17.238Z,5.33
2019-01-02T03:06:15.638Z,11.55
2019-01-02T03:08:43.477Z,9.53
2019-01-02T03:14:24.594Z,5.25
2019-01-02T03:16:41.353Z,4.80
2019-01-02T03:19:11.374Z,5.55
2019-01-02T03:21:43.062Z,5.97
2019-01-02T03:24:12.752Z,5.15
2019-01-02T03:26:40.805Z,8.10
2019-01-02T03:29:08.766Z,7.90
2019-01-02T03:31:38.387Z,6.72
2019-01-02T03:34:08.041Z,6.08
2019-01-02T03:36:39.697Z,7.15
2019-01-02T03:39:10.367Z,6.30
2019-01-02T03:44:11.923Z,4.47
2019-01-02T03:49:36.564Z,4.50
2019-01-02T03:52:04.486Z,8.18
2019-01-02T03:54:32.367Z,6.25
2019-01-02T03:57:02.375Z,8.43
2019-01-02T03:59:32.508Z,4.87
2019-01-02T04:02:00.477Z,5.33
2019-01-02T04:04:28.384Z,5.67
2019-01-02T04:07:15.293Z,5.83
2019-01-02T04:09:45.512Z,4.50
2019-01-02T04:18:12.825Z,5.70
2019-01-02T04:20:41.686Z,8.75
2019-01-02T04:23:09.596Z,11.10
2019-01-02T04:25:37.485Z,13.40
2019-01-02T04:28:05.345Z,5.72
2019-01-02T04:30:45.693Z,4.25
2019-01-02T04:33:03.533Z,5.25
2019-01-02T04:35:31.458Z,4.55
2019-01-02T04:37:59.342Z,4.25
2019-01-02T04:40:27.246Z,4.47
2019-01-02T04:42:55.098Z,3.62
2019-01-02T04:45:22.981Z,4.17
2019-01-02T04:47:50.865Z,2.85
2019-01-02T04:50:18.803Z,3.70
2019-01-02T04:55:35.406Z,3.60
2019-01-02T04:58:22.275Z,3.37
2019-01-02T05:03:51.378Z,3.80
2019-01-02T05:06:19.311Z,4.03
2019-01-02T05:08:47.262Z,3.65
2019-01-02T05:14:09.553Z,5.03
2019-01-02T05:22:37.360Z,4.72
2019-01-02T05:25:24.314Z,5.60
2019-01-02T05:27:52.274Z,5.15
2019-01-02T05:30:20.201Z,5.70
2019-01-02T05:32:48.175Z,5.37
2019-01-02T05:35:16.934Z,5.70
2019-01-02T05:40:37.637Z,4.70
2019-01-02T05:43:16.898Z,4.50
2019-01-02T05:45:44.790Z,4.90
2019-01-02T05:48:12.661Z,5.60
2019-01-02T05:53:29.250Z,4.75
2019-01-02T05:55:57.259Z,4.45
2019-01-02T05:58:25.197Z,5.85
2019-01-02T06:04:00.621Z,5.12
2019-01-02T06:06:47.650Z,3.98
2019-01-02T06:09:15.555Z,4.58
2019-01-02T06:11:45.483Z,5.70
2019-01-02T06:14:13.603Z,5.47
2019-01-02T06:16:41.424Z,5.55
2019-01-02T06:19:09.264Z,4.40
2019-01-02T06:21:37.076Z,4.22
2019-01-02T06:24:04.876Z,4.28
2019-01-02T06:26:32.769Z,3.87
2019-01-02T06:29:00.616Z,4.17
2019-01-02T06:31:28.429Z,5.97
2019-01-02T06:33:56.247Z,3.92
2019-01-02T06:36:24.061Z,4.50
2019-01-02T06:38:51.917Z,3.75
2019-01-02T06:41:19.725Z,4.17
2019-01-02T06:43:47.579Z,5.45
2019-01-02T06:46:15.413Z,4.00
2019-01-02T06:48:43.225Z,4.30
2019-01-02T06:51:11.062Z,5.25
2019-01-02T06:53:38.858Z,3.72
2019-01-02T06:56:06.690Z,4.12
2019-01-02T06:58:34.489Z,4.30
2019-01-02T07:01:09.115Z,5.42
2019-01-02T07:03:36.910Z,4.83
2019-01-02T07:06:04.739Z,3.85
2019-01-02T07:08:32.549Z,4.50
2019-01-02T07:11:00.365Z,3.42
2019-01-02T07:13:28.217Z,3.90
2019-01-02T07:15:56.053Z,4.05
2019-01-02T07:18:23.874Z,3.62
2019-01-02T07:20:51.690Z,3.95
2019-01-02T07:23:19.497Z,4.45
2019-01-02T07:25:47.317Z,4.90
2019-01-02T07:28:15.161Z,4.62
2019-01-02T07:30:43.058Z,4.33
2019-01-02T07:33:10.861Z,4.28
2019-01-02T07:35:57.742Z,4.20
2019-01-02T07:38:32.597Z,4.70
2019-01-02T07:41:09.325Z,4.33
2019-01-02T07:43:56.225Z,3.72
2019-01-02T07:46:43.153Z,4.17
2019-01-02T07:49:19.658Z,4.65
2019-01-02T07:52:06.578Z,4.95
2019-01-02T07:54:53.469Z,4.08
2019-01-02T07:57:40.388Z,4.42
2019-01-02T08:00:27.260Z,3.85
2019-01-02T08:03:14.187Z,3.47
2019-01-02T08:05:46.078Z,3.35
2019-01-02T08:08:32.985Z,3.75
2019-01-02T08:11:19.990Z,4.55
2019-01-02T08:14:06.920Z,3.02
2019-01-02T08:16:53.792Z,3.50
2019-01-02T08:19:40.726Z,4.50
2019-01-02T08:22:27.613Z,3.72
2019-01-02T08:25:14.532Z,3.62
2019-01-02T08:27:48.009Z,3.87
2019-01-02T08:30:34.932Z,3.65
2019-01-02T08:33:08.290Z,3.80
2019-01-02T08:35:55.199Z,4.03
2019-01-02T08:38:42.142Z,3.27
2019-01-02T08:41:29.074Z,3.95
2019-01-02T08:44:15.998Z,4.40
2019-01-02T08:46:59.491Z,4.12
2019-01-02T08:49:46.422Z,4.05
2019-01-02T08:52:33.306Z,3.30
2019-01-02T08:55:20.230Z,4.53
2019-01-02T08:58:07.125Z,4.20
2019-01-02T09:00:54.084Z,4.17
2019-01-02T09:03:41.014Z,4.55
2019-01-02T09:06:27.946Z,3.95
2019-01-02T09:09:14.840Z,4.20
2019-01-02T09:12:01.773Z,4.42
2019-01-02T09:14:38.177Z,3.95
2019-01-02T09:17:25.441Z,4.45
2019-01-02T09:20:13.505Z,3.90
2019-01-02T09:23:00.421Z,5.95
2019-01-02T09:25:47.380Z,3.90
2019-01-02T09:28:34.247Z,3.60
2019-01-02T09:31:21.146Z,4.33
2019-01-02T09:34:08.057Z,3.50
2019-01-02T09:36:50.702Z,4.10
2019-01-02T09:39:25.498Z,4.08
2019-01-02T09:42:12.522Z,4.03
2019-01-02T09:44:59.406Z,4.83
2019-01-02T09:47:46.357Z,4.53
2019-01-02T09:50:33.243Z,3.90
2019-01-02T09:53:20.155Z,4.05
2019-01-02T09:56:07.054Z,3.80
2019-01-02T09:58:53.962Z,3.95
2019-01-02T10:01:40.893Z,3.95
2019-01-02T10:04:28.088Z,4.47
2019-01-02T10:07:14.950Z,4.22
2019-01-02T10:10:01.886Z,7.30
2019-01-02T10:12:48.795Z,4.30
2019-01-02T10:15:35.717Z,3.47
2019-01-02T10:18:22.608Z,3.75
2019-01-02T10:21:09.514Z,3.40
2019-01-02T10:23:42.690Z,4.17
2019-01-02T10:26:29.755Z,4.35
2019-01-02T10:29:16.686Z,4.30
2019-01-02T10:32:03.594Z,4.40
2019-01-02T10:34:50.550Z,3.40
2019-01-02T10:37:37.462Z,3.45
2019-01-02T10:40:24.404Z,3.45
2019-01-02T10:43:11.318Z,2.25
2019-01-02T10:45:58.234Z,2.92
2019-01-02T10:48:46.851Z,2.37
2019-01-02T10:51:33.773Z,2.42
2019-01-02T10:54:20.870Z,2.87
2019-01-02T10:57:07.842Z,2.98
2019-01-02T10:59:54.765Z,2.30
2019-01-02T11:02:41.815Z,2.17
2019-01-02T11:05:28.790Z,1.90
2019-01-02T11:08:15.733Z,2.60
2019-01-02T11:11:02.725Z,2.15
2019-01-02T11:13:49.698Z,2.25
2019-01-02T11:16:36.988Z,2.00
2019-01-02T11:19:23.926Z,1.50
2019-01-02T11:22:10.827Z,1.98
2019-01-02T11:24:42.997Z,1.80
2019-01-02T11:27:29.945Z,1.82
2019-01-02T11:30:16.877Z,2.00
2019-01-02T11:33:04.178Z,1.70
2019-01-02T11:35:51.147Z,1.65
2019-01-02T11:38:25.998Z,1.80
2019-01-02T11:41:13.248Z,1.75
2019-01-02T11:46:45.008Z,1.80
2019-01-02T11:49:12.920Z,1.90
2019-01-02T11:51:40.780Z,2.20
2019-01-02T11:54:27.739Z,1.62
2019-01-02T12:00:08.748Z,1.52
2019-01-02T12:05:44.617Z,1.50
2019-01-02T12:08:12.555Z,1.60
2019-01-02T12:13:20.774Z,1.70
2019-01-02T12:15:48.711Z,1.70
2019-01-02T12:21:23.949Z,2.47
2019-01-02T12:23:52.291Z,1.17
2019-01-02T12:26:20.574Z,2.00
2019-01-02T12:29:08.585Z,1.65
2019-01-02T12:32:01.938Z,1.45
2019-01-02T12:34:29.852Z,2.20
2019-01-02T12:36:57.865Z,2.25
2019-01-02T12:42:31.999Z,1.50
2019-01-02T12:45:01.223Z,2.22
2019-01-02T12:47:29.119Z,1.80
2019-01-02T12:49:57.346Z,2.00
2019-01-02T12:55:00.546Z,1.80
2019-01-02T12:57:30.816Z,1.65
2019-01-02T13:03:07.511Z,1.20
2019-01-02T13:05:54.534Z,1.72
2019-01-02T13:08:41.501Z,1.37
2019-01-02T13:11:11.753Z,1.67
2019-01-02T13:13:58.745Z,1.30
2019-01-02T13:16:40.883Z,1.40
2019-01-02T13:19:27.815Z,1.42
2019-01-02T13:22:10.040Z,1.22
2019-01-02T13:24:56.976Z,2.00
2019-01-02T13:27:29.230Z,1.60
2019-01-02T13:30:16.130Z,1.90
2019-01-02T13:33:03.053Z,1.60
2019-01-02T13:35:43.880Z,1.17
2019-01-02T13:38:30.794Z,1.20
2019-01-02T13:41:17.690Z,1.55
2019-01-02T13:44:04.621Z,1.47
2019-01-02T13:46:51.533Z,1.22
2019-01-02T13:49:38.466Z,1.35
2019-01-02T13:52:06.311Z,1.62
2019-01-02T13:54:34.170Z,1.35
2019-01-02T13:57:01.954Z,1.17
2019-01-02T13:59:29.805Z,1.45
2019-01-02T14:01:57.654Z,1.60
2019-01-02T14:04:25.523Z,1.30
2019-01-02T14:06:53.330Z,1.45
2019-01-02T14:09:21.235Z,1.10
2019-01-02T14:11:49.471Z,1.10
2019-01-02T14:14:17.332Z,1.55
2019-01-02T14:16:45.110Z,1.20
2019-01-02T14:19:12.954Z,0.88
2019-01-02T14:21:40.865Z,1.00
2019-01-02T14:24:08.710Z,1.25
2019-01-02T14:26:36.541Z,1.20
2019-01-02T14:29:04.338Z,1.00
2019-01-02T14:31:32.211Z,1.15
2019-01-02T14:34:00.043Z,1.35
2019-01-02T14:36:27.938Z,1.10
2019-01-02T14:38:55.734Z,1.07
2019-01-02T14:41:23.582Z,1.10
2019-01-02T14:43:51.534Z,1.10
2019-01-02T14:46:19.390Z,1.22
2019-01-02T14:48:47.189Z,1.57
2019-01-02T14:51:15.042Z,1.02
2019-01-02T14:53:42.858Z,1.30
2019-01-02T14:56:10.694Z,1.90
2019-01-02T14:58:38.538Z,2.80
2019-01-02T15:03:39.451Z,1.30
2019-01-02T15:06:07.318Z,1.45
2019-01-02T15:08:35.136Z,1.65
2019-01-02T15:11:08.114Z,1.10
2019-01-02T15:13:32.557Z,1.40
2019-01-02T15:16:00.399Z,1.32
2019-01-02T15:18:28.230Z,1.52
2019-01-02T15:20:56.065Z,1.42
2019-01-02T15:23:23.914Z,1.20
2019-01-02T15:25:51.722Z,2.10
2019-01-02T15:28:19.545Z,2.80
2019-01-02T15:30:47.361Z,2.22
2019-01-02T15:33:15.217Z,2.20
2019-01-02T15:35:48.795Z,2.30
2019-01-02T15:38:12.606Z,1.60
2019-01-02T15:40:40.445Z,1.50
2019-01-02T15:43:08.289Z,1.80
2019-01-02T15:45:36.089Z,1.60
2019-01-02T15:48:03.958Z,2.02
2019-01-02T15:50:31.802Z,1.90
2019-01-02T15:52:59.624Z,2.77
2019-01-02T15:55:27.462Z,1.50
2019-01-02T15:57:55.483Z,2.15
2019-01-02T16:00:23.349Z,1.77
2019-01-02T16:02:51.192Z,1.80
2019-01-02T16:05:19.045Z,2.92
2019-01-02T16:07:46.873Z,2.08
2019-01-02T16:10:14.715Z,1.80
2019-01-02T16:12:46.655Z,2.15
2019-01-02T16:15:12.131Z,2.05
2019-01-02T16:17:39.944Z,1.42
2019-01-02T16:20:09.278Z,1.70
2019-01-02T16:22:37.112Z,1.50
2019-01-02T16:25:05.002Z,2.80
2019-01-02T16:27:32.859Z,1.87
2019-01-02T16:30:00.782Z,1.90
2019-01-02T16:32:28.598Z,2.40
2019-01-02T16:34:56.477Z,2.40
2019-01-02T16:37:24.326Z,2.60
2019-01-02T16:39:52.168Z,2.50
2019-01-02T16:42:20.022Z,2.17
2019-01-02T16:44:47.851Z,1.85
2019-01-02T16:47:15.701Z,2.15
2019-01-02T16:49:43.519Z,2.22
2019-01-02T16:54:47.267Z,2.50
2019-01-02T16:57:15.125Z,3.15
2019-01-02T16:59:42.936Z,3.25
2019-01-02T17:02:10.800Z,3.42
2019-01-02T17:04:38.630Z,4.20
2019-01-02T17:07:06.502Z,4.37
2019-01-02T17:09:34.319Z,5.08
2019-01-02T17:12:02.445Z,6.60
2019-01-02T17:14:30.279Z,6.00
2019-01-02T17:16:58.150Z,7.67
2019-01-02T17:19:25.973Z,7.80
2019-01-02T17:21:53.828Z,8.40
2019-01-02T17:24:21.630Z,7.45
2019-01-02T17:29:22.901Z,7.53
2019-01-02T17:31:50.747Z,7.83
2019-01-02T17:34:18.599Z,10.00
2019-01-02T17:36:46.438Z,10.03
2019-01-02T17:39:14.301Z,9.53
2019-01-02T17:41:42.170Z,8.20
2019-01-02T17:44:10.057Z,6.97
2019-01-02T17:46:37.892Z,7.17
2019-01-02T17:49:06.026Z,7.20
2019-01-02T17:51:54.629Z,5.15
2019-01-02T17:54:22.546Z,4.80
2019-01-02T17:56:50.460Z,7.53
2019-01-02T17:59:18.428Z,9.60
2019-01-02T18:01:46.281Z,7.17
2019-01-02T18:04:14.163Z,6.83
2019-01-02T18:06:44.152Z,5.30
2019-01-02T18:09:12.073Z,5.72
2019-01-02T18:11:39.998Z,5.50
2019-01-02T18:14:08.118Z,5.28
2019-01-02T18:16:36.018Z,6.20
2019-01-02T18:22:00.251Z,6.20
2019-01-02T18:24:30.446Z,6.05
2019-01-02T18:26:58.310Z,5.65
2019-01-02T18:29:45.192Z,4.60
2019-01-02T18:32:13.438Z,4.75
2019-01-02T18:34:41.414Z,4.90
2019-01-02T18:37:28.599Z,4.50
2019-01-02T18:45:24.547Z,5.47
2019-01-02T18:47:52.422Z,5.65
2019-01-02T18:50:20.854Z,4.72
2019-01-02T18:52:48.732Z,5.00
2019-01-02T18:58:11.263Z,5.60
2019-01-02T19:03:27.790Z,5.80
2019-01-02T19:05:56.113Z,5.05
2019-01-02T19:08:24.424Z,6.53
2019-01-02T19:10:52.460Z,5.78
2019-01-02T19:13:20.470Z,5.40
2019-01-02T19:16:07.369Z,5.08
2019-01-02T19:18:35.243Z,4.87
2019-01-02T19:21:05.173Z,4.55
2019-01-02T19:23:33.097Z,4.40
2019-01-02T19:26:01.019Z,5.75
2019-01-02T19:28:28.915Z,5.15
2019-01-02T19:30:56.866Z,5.22
2019-01-02T19:33:24.819Z,5.12
2019-01-02T19:35:52.680Z,4.78
2019-01-02T19:38:20.555Z,4.22
2019-01-02T19:41:07.459Z,4.60
2019-01-02T19:46:48.779Z,5.20
2019-01-02T19:52:28.362Z,5.80
2019-01-02T19:54:56.254Z,4.83
2019-01-02T19:57:43.268Z,4.28
2019-01-02T20:00:11.527Z,4.78
2019-01-02T20:02:39.428Z,4.85
2019-01-02T20:05:07.377Z,5.25
2019-01-02T20:07:55.506Z,4.67
2019-01-02T20:13:18.129Z,4.37
2019-01-02T20:15:46.031Z,4.22
2019-01-02T20:18:13.906Z,3.77
2019-01-02T20:20:42.116Z,5.00
2019-01-02T20:23:10.196Z,4.17
2019-01-02T20:25:38.101Z,3.90
2019-01-02T20:28:06.131Z,4.78
2019-01-02T20:30:34.259Z,3.70
2019-01-02T20:33:02.192Z,4.55
2019-01-02T20:35:30.201Z,4.67
2019-01-02T20:37:58.094Z,5.00
2019-01-02T20:40:26.064Z,5.00
2019-01-02T20:42:54.026Z,4.33
2019-01-02T20:45:22.131Z,4.55
2019-01-02T20:47:50.549Z,4.75
2019-01-02T20:50:18.589Z,4.85
2019-01-02T20:52:46.543Z,4.62
2019-01-02T20:57:48.259Z,3.75
2019-01-02T21:00:19.755Z,3.80
2019-01-02T21:02:47.675Z,3.30
2019-01-02T21:05:15.734Z,3.02
2019-01-02T21:07:45.939Z,3.22
2019-01-02T21:10:13.811Z,3.62
2019-01-02T21:12:46.086Z,3.70
2019-01-02T21:15:14.384Z,3.60
2019-01-02T21:18:01.366Z,4.45
2019-01-02T21:20:29.304Z,5.10
2019-01-02T21:22:57.295Z,5.95
2019-01-02T21:25:25.210Z,6.22
2019-01-02T21:27:53.105Z,6.00
2019-01-02T21:33:28.535Z,4.25
2019-01-02T21:35:56.459Z,4.83
2019-01-02T21:38:29.183Z,5.60
2019-01-02T21:40:57.216Z,6.22
2019-01-02T21:46:00.382Z,5.83
2019-01-02T21:48:28.402Z,6.90
2019-01-02T21:51:16.506Z,6.53
2019-01-02T21:53:44.507Z,5.60
2019-01-02T22:01:34.445Z,4.30
2019-01-02T22:04:02.403Z,4.80
2019-01-02T22:06:49.846Z,4.28
2019-01-02T22:09:36.841Z,3.98
2019-01-02T22:12:06.880Z,4.15
2019-01-02T22:20:10.692Z,4.30
2019-01-02T22:22:57.872Z,3.70
2019-01-02T22:25:26.029Z,4.28
2019-01-02T22:33:23.388Z,3.55
2019-01-02T22:35:51.376Z,5.47
2019-01-02T22:38:38.320Z,3.83
2019-01-02T22:41:08.275Z,4.00
2019-01-02T22:43:36.225Z,3.25
2019-01-02T22:46:04.112Z,3.65
2019-01-02T22:48:32.010Z,4.12
2019-01-02T22:50:59.931Z,4.20
2019-01-02T22:53:27.836Z,3.27
2019-01-02T22:55:57.491Z,4.50
2019-01-02T22:58:44.411Z,4.10
2019-01-02T23:04:25.536Z,6.60
2019-01-02T23:07:13.463Z,5.42
2019-01-02T23:10:00.349Z,5.67
2019-01-02T23:12:48.426Z,5.55
2019-01-02T23:15:36.354Z,4.92
2019-01-02T23:18:23.400Z,5.67
2019-01-02T23:21:10.317Z,5.20
2019-01-02T23:23:57.193Z,5.55
2019-01-02T23:26:44.255Z,6.08
2019-01-02T23:32:24.011Z,6.67
2019-01-02T23:35:12.510Z,5.95
2019-01-02T23:41:00.969Z,5.30
2019-01-02T23:43:49.953Z,4.47
2019-01-02T23:46:36.910Z,4.55
2019-01-02T23:49:17.349Z,3.77
2019-01-02T23:52:04.235Z,4.40
2019-01-02T23:54:51.762Z,4.70
